Time;durP1;ratioP1;P1;durP2;ratioP2;P2;SDS_P1;SDS_P2;PMS_P1;PMS_P2;Temp;Humidity;BMP_temperature;BMP_pressure;BME280_temperature;BME280_humidity;BME280_pressure;Samples;Min_cycle;Max_cycle;Signal;HPM_P1;HPM_P2
2023/02/07 00:02:13;;;;;;;6.78;5.18;;;1.90;99.90;;;;;;4887540;29;20080;-79
2023/02/07 00:04:40;;;;;;;8.10;4.80;;;1.80;99.90;;;;;;4890784;29;20076;-79
2023/02/07 00:07:07;;;;;;;8.07;4.72;;;1.80;99.90;;;;;;4893583;29;20131;-79
2023/02/07 00:09:36;;;;;;;8.55;4.78;;;1.70;99.90;;;;;;4872958;29;20057;-79
2023/02/07 00:12:03;;;;;;;11.65;5.57;;;1.60;99.90;;;;;;4891603;29;20056;-79
2023/02/07 00:14:30;;;;;;;9.68;5.45;;;1.60;99.90;;;;;;4895515;29;20052;-80
2023/02/07 00:16:57;;;;;;;6.88;4.75;;;1.50;99.90;;;;;;4889550;29;20092;-79
2023/02/07 00:19:23;;;;;;;8.10;4.88;;;1.50;99.90;;;;;;4873457;29;20055;-79
2023/02/07 00:21:50;;;;;;;7.13;4.85;;;1.40;99.90;;;;;;4893176;29;20081;-79
2023/02/07 00:24:17;;;;;;;8.30;4.93;;;1.40;99.90;;;;;;4890894;29;20549;-79
2023/02/07 00:26:46;;;;;;;11.50;5.20;;;1.40;99.90;;;;;;4887089;29;20053;-79
2023/02/07 00:29:13;;;;;;;6.97;4.60;;;1.30;99.90;;;;;;4885884;29;20048;-79
2023/02/07 00:31:39;;;;;;;7.85;4.75;;;1.30;99.90;;;;;;4877148;29;20144;-79
2023/02/07 00:34:07;;;;;;;7.70;5.13;;;1.30;99.90;;;;;;4893528;29;20061;-79
2023/02/07 00:36:34;;;;;;;8.20;5.53;;;1.30;99.90;;;;;;4895605;29;20513;-79
2023/02/07 00:39:05;;;;;;;10.52;5.75;;;1.30;99.90;;;;;;4883672;29;20048;-79
2023/02/07 00:41:32;;;;;;;8.77;5.53;;;1.30;99.90;;;;;;4889305;29;20507;-78
2023/02/07 00:43:59;;;;;;;8.05;5.60;;;1.30;99.90;;;;;;4872742;29;20116;-79
2023/02/07 00:46:26;;;;;;;8.07;4.97;;;1.30;99.90;;;;;;4871715;29;20072;-79
2023/02/07 00:48:53;;;;;;;7.60;5.32;;;1.20;99.90;;;;;;4882867;29;20055;-79
2023/02/07 00:51:20;;;;;;;6.93;4.93;;;1.10;99.90;;;;;;4894831;29;20040;-79
2023/02/07 00:53:47;;;;;;;13.88;6.20;;;1.10;99.90;;;;;;4887657;29;20067;-78
2023/02/07 00:56:14;;;;;;;8.52;5.82;;;1.10;99.90;;;;;;4885120;29;20084;-79
2023/02/07 00:58:41;;;;;;;10.23;7.43;;;1.00;99.90;;;;;;4894015;29;20415;-80
2023/02/07 01:01:08;;;;;;;11.77;7.55;;;1.00;99.90;;;;;;4892880;29;20497;-79
2023/02/07 01:03:34;;;;;;;8.88;6.68;;;1.10;99.90;;;;;;4892202;29;20053;-79
2023/02/07 01:06:01;;;;;;;10.10;6.63;;;1.10;99.90;;;;;;4882891;29;20143;-79
2023/02/07 01:08:28;;;;;;;9.05;6.82;;;1.10;99.90;;;;;;4889411;29;20052;-79
2023/02/07 01:10:54;;;;;;;11.48;6.15;;;1.10;99.90;;;;;;4885629;29;20122;-79
2023/02/07 01:13:21;;;;;;;11.35;7.03;;;1.10;99.90;;;;;;4885961;29;20576;-80
2023/02/07 01:15:48;;;;;;;10.55;7.10;;;1.10;99.90;;;;;;4893671;29;20055;-79
2023/02/07 01:18:16;;;;;;;9.05;7.10;;;1.00;99.90;;;;;;4892068;29;20141;-79
2023/02/07 01:20:42;;;;;;;11.63;8.25;;;1.10;99.90;;;;;;4881906;29;20132;-79
2023/02/07 01:23:11;;;;;;;10.10;6.80;;;1.00;99.90;;;;;;4898364;29;20044;-80
2023/02/07 01:25:38;;;;;;;7.80;5.47;;;1.00;99.90;;;;;;4871276;29;20153;-79
2023/02/07 01:28:06;;;;;;;6.55;4.75;;;1.00;99.90;;;;;;4891239;29;20465;-79
2023/02/07 01:30:32;;;;;;;7.47;4.90;;;1.00;99.90;;;;;;4890165;29;20053;-79
2023/02/07 01:32:59;;;;;;;5.43;3.85;;;1.00;99.90;;;;;;4891475;29;20053;-79
2023/02/07 01:35:26;;;;;;;7.18;5.20;;;0.90;99.90;;;;;;4889262;29;20063;-80
2023/02/07 01:37:53;;;;;;;7.47;5.57;;;0.90;99.90;;;;;;4884343;29;20136;-79
2023/02/07 01:40:20;;;;;;;7.28;5.00;;;0.90;99.90;;;;;;4867124;29;20052;-79
2023/02/07 01:42:47;;;;;;;6.00;4.05;;;0.80;99.90;;;;;;4892909;29;20045;-80
2023/02/07 01:45:36;;;;;;;4.00;2.75;;;0.80;99.90;;;;;;4894573;29;20048;-79
2023/02/07 01:48:07;;;;;;;;;;;0.70;99.90;;;;;;4895396;29;20057;-79
2023/02/07 01:50:34;;;;;;;;;;;0.60;99.90;;;;;;4892817;29;19923;-80
2023/02/07 01:53:04;;;;;;;3.80;2.60;;;0.60;99.90;;;;;;4879951;29;20031;-80
2023/02/07 01:55:32;;;;;;;;;;;0.60;99.90;;;;;;4876184;29;20051;-79
2023/02/07 01:58:01;;;;;;;5.25;3.17;;;0.60;99.90;;;;;;4888261;29;19924;-79
2023/02/07 02:00:28;;;;;;;6.07;3.80;;;0.60;99.90;;;;;;4882834;29;20067;-79
2023/02/07 02:02:56;;;;;;;5.68;3.15;;;0.60;99.90;;;;;;4892502;29;20521;-79
2023/02/07 02:05:23;;;;;;;5.18;3.22;;;0.50;99.90;;;;;;4887868;29;20053;-79
2023/02/07 02:07:50;;;;;;;7.88;3.22;;;0.50;99.90;;;;;;4896527;29;20507;-79
2023/02/07 02:10:23;;;;;;;3.78;2.80;;;0.40;99.90;;;;;;4886587;29;20050;-79
2023/02/07 02:13:10;;;;;;;4.10;3.00;;;0.40;99.90;;;;;;4895123;29;20061;-79
2023/02/07 02:15:54;;;;;;;4.88;3.08;;;0.50;99.90;;;;;;4893368;29;20135;-79
2023/02/07 02:18:33;;;;;;;6.10;3.35;;;0.50;99.90;;;;;;4892345;29;20418;-79
2023/02/07 02:21:38;;;;;;;5.82;3.20;;;0.40;99.90;;;;;;4883723;29;20658;-79
2023/02/07 02:24:32;;;;;;;4.72;3.08;;;0.40;99.90;;;;;;4890275;29;20057;-79
2023/02/07 02:27:11;;;;;;;6.55;3.58;;;0.40;99.90;;;;;;4895875;29;20068;-79
2023/02/07 02:29:56;;;;;;;4.80;3.20;;;0.50;99.90;;;;;;4894249;29;20130;-79
2023/02/07 02:32:57;;;;;;;6.18;3.22;;;0.40;99.90;;;;;;4899097;29;20519;-80
2023/02/07 02:35:52;;;;;;;6.25;3.17;;;0.40;99.90;;;;;;4890372;29;20053;-80
2023/02/07 02:38:39;;;;;;;5.95;3.22;;;0.40;99.90;;;;;;4893804;29;20062;-80
2023/02/07 02:41:16;;;;;;;5.38;3.28;;;0.50;99.90;;;;;;4893475;29;20045;-79
2023/02/07 02:43:52;;;;;;;4.35;3.33;;;0.50;99.90;;;;;;4896532;29;20048;-79
2023/02/07 02:46:33;;;;;;;5.25;3.22;;;0.50;99.90;;;;;;4897912;29;20045;-79
2023/02/07 02:49:02;;;;;;;4.70;3.40;;;0.50;99.90;;;;;;4886419;29;20060;-79
2023/02/07 02:51:29;;;;;;;7.22;3.95;;;0.50;99.90;;;;;;4894782;29;20065;-80
2023/02/07 02:53:58;;;;;;;6.60;3.92;;;0.50;99.90;;;;;;4879903;29;20121;-80
2023/02/07 02:56:57;;;;;;;6.40;3.90;;;0.40;99.90;;;;;;4884848;29;20048;-79
2023/02/07 02:59:59;;;;;;;5.97;4.03;;;0.30;99.90;;;;;;4896352;29;20048;-79
2023/02/07 03:03:20;;;;;;;8.15;3.92;;;0.20;99.90;;;;;;4883871;29;20049;-79
2023/02/07 03:06:04;;;;;;;7.13;4.57;;;0.20;99.90;;;;;;4848348;29;20993;-80
2023/02/07 03:08:52;;;;;;;9.32;4.50;;;0.20;99.90;;;;;;4891074;29;20104;-79
2023/02/07 03:11:22;;;;;;;6.63;4.53;;;0.20;99.90;;;;;;4890244;29;20112;-80
2023/02/07 03:13:55;;;;;;;7.00;4.25;;;0.10;99.90;;;;;;4884876;29;20187;-79
2023/02/07 03:16:32;;;;;;;6.72;4.53;;;0.20;99.90;;;;;;4892542;29;20044;-79
2023/02/07 03:18:59;;;;;;;6.82;4.00;;;0.10;99.90;;;;;;4875568;29;20095;-78
2023/02/07 03:21:32;;;;;;;8.88;4.38;;;0.10;99.90;;;;;;4892668;29;20049;-80
2023/02/07 03:24:03;;;;;;;7.15;4.60;;;0.20;99.90;;;;;;4894119;29;20073;-80
2023/02/07 03:26:31;;;;;;;6.57;4.25;;;0.10;99.90;;;;;;4894398;29;20052;-78
2023/02/07 03:28:59;;;;;;;7.30;5.18;;;0.20;99.90;;;;;;4888800;29;20057;-79
2023/02/07 03:31:28;;;;;;;7.18;4.65;;;0.20;99.90;;;;;;4886686;29;20088;-80
2023/02/07 03:34:02;;;;;;;6.65;4.57;;;0.20;99.90;;;;;;4890170;29;20059;-79
2023/02/07 03:36:38;;;;;;;5.72;3.97;;;0.20;99.90;;;;;;4881793;29;20061;-79
2023/02/07 03:39:05;;;;;;;6.90;4.53;;;0.30;99.90;;;;;;4892745;29;20053;-79
2023/02/07 03:41:50;;;;;;;5.97;4.18;;;0.30;99.90;;;;;;4897771;29;20546;-79
2023/02/07 03:44:21;;;;;;;7.93;4.43;;;0.30;99.90;;;;;;4896127;29;20152;-79
2023/02/07 03:46:49;;;;;;;6.28;4.28;;;0.30;99.90;;;;;;4888791;29;20148;-79
2023/02/07 03:49:16;;;;;;;6.78;4.30;;;0.20;99.90;;;;;;4891202;29;20040;-79
2023/02/07 03:51:43;;;;;;;5.88;3.90;;;0.20;99.90;;;;;;4906435;29;20052;-78
2023/02/07 03:54:10;;;;;;;7.70;4.28;;;0.20;99.90;;;;;;4898178;29;20057;-78
2023/02/07 03:56:38;;;;;;;5.45;4.00;;;0.20;99.90;;;;;;4906446;29;20072;-78
2023/02/07 03:59:05;;;;;;;6.78;3.95;;;0.20;99.90;;;;;;4912116;29;20080;-78
2023/02/07 04:01:31;;;;;;;5.90;4.25;;;0.20;99.90;;;;;;4894667;29;20385;-80
2023/02/07 04:03:58;;;;;;;6.15;4.10;;;0.20;99.90;;;;;;4891254;29;20053;-79
2023/02/07 04:06:25;;;;;;;4.88;3.70;;;0.20;99.90;;;;;;4877020;29;20530;-79
2023/02/07 04:08:51;;;;;;;8.27;4.75;;;0.20;99.90;;;;;;4894774;29;20067;-79
2023/02/07 04:11:18;;;;;;;6.78;4.68;;;0.20;99.90;;;;;;4875525;29;20472;-79
2023/02/07 04:13:45;;;;;;;9.07;4.10;;;0.10;99.90;;;;;;4886158;29;20140;-79
2023/02/07 04:16:11;;;;;;;6.18;4.43;;;0.10;99.90;;;;;;4888310;29;20088;-79
2023/02/07 04:18:38;;;;;;;5.97;4.20;;;0.10;99.90;;;;;;4890773;29;20068;-79
2023/02/07 04:21:07;;;;;;;6.53;4.30;;;0.10;99.90;;;;;;4891482;29;20053;-79
2023/02/07 04:23:35;;;;;;;5.82;3.88;;;0.00;99.90;;;;;;4887454;29;20136;-79
2023/02/07 04:26:01;;;;;;;3.85;3.25;;;0.00;99.90;;;;;;4883614;29;20057;-78
2023/02/07 04:28:28;;;;;;;5.03;3.63;;;0.00;99.90;;;;;;4892427;29;20139;-78
2023/02/07 04:30:55;;;;;;;6.65;3.67;;;-0.10;99.90;;;;;;4889085;29;20111;-78
2023/02/07 04:33:22;;;;;;;6.05;3.53;;;-0.10;99.90;;;;;;4873304;29;20048;-78
2023/02/07 04:35:57;;;;;;;5.20;3.60;;;-0.10;99.90;;;;;;4874570;29;20094;-77
2023/02/07 04:38:25;;;;;;;4.63;3.67;;;-0.10;99.90;;;;;;4891298;29;20087;-78
2023/02/07 04:40:52;;;;;;;6.22;3.38;;;-0.10;99.90;;;;;;4884702;29;20081;-78
2023/02/07 04:43:18;;;;;;;5.72;3.75;;;-0.10;99.90;;;;;;4867025;29;20135;-78
2023/02/07 04:45:46;;;;;;;5.07;3.53;;;-0.10;99.90;;;;;;4892313;29;20048;-78
2023/02/07 04:48:14;;;;;;;5.55;3.65;;;-0.10;99.90;;;;;;4891227;29;20059;-78
2023/02/07 04:50:40;;;;;;;6.10;4.00;;;-0.20;99.90;;;;;;4879167;29;20060;-78
2023/02/07 04:53:07;;;;;;;6.40;4.45;;;-0.20;99.90;;;;;;4895349;29;20053;-78
2023/02/07 04:55:36;;;;;;;7.05;4.15;;;-0.20;99.90;;;;;;4887481;29;20546;-78
2023/02/07 04:58:04;;;;;;;6.95;4.13;;;-0.20;99.90;;;;;;4887853;29;20080;-78
2023/02/07 05:00:32;;;;;;;9.02;4.50;;;-0.20;99.90;;;;;;4887826;29;20140;-77
2023/02/07 05:02:59;;;;;;;8.30;4.38;;;-0.20;99.90;;;;;;4881494;29;20104;-78
2023/02/07 05:05:26;;;;;;;4.40;3.33;;;-0.30;99.90;;;;;;4890027;29;20052;-78
2023/02/07 05:07:53;;;;;;;6.40;4.22;;;-0.30;99.90;;;;;;4884895;29;20078;-78
2023/02/07 05:10:19;;;;;;;6.10;4.13;;;-0.30;99.90;;;;;;4884753;29;20135;-78
2023/02/07 05:12:46;;;;;;;7.15;3.63;;;-0.30;99.90;;;;;;4894277;29;20096;-78
2023/02/07 05:15:13;;;;;;;6.60;4.35;;;-0.30;99.90;;;;;;4892161;29;20128;-78
2023/02/07 05:17:40;;;;;;;6.38;3.78;;;-0.40;99.90;;;;;;4891485;29;20478;-78
2023/02/07 05:20:07;;;;;;;5.28;3.40;;;-0.40;99.90;;;;;;4891214;29;20053;-78
2023/02/07 05:22:34;;;;;;;5.55;3.35;;;-0.50;99.90;;;;;;4886150;29;20500;-78
2023/02/07 05:25:00;;;;;;;5.80;3.83;;;-0.50;99.90;;;;;;4884275;29;20049;-78
2023/02/07 05:27:27;;;;;;;7.10;4.88;;;-0.50;99.90;;;;;;4884089;29;20134;-77
2023/02/07 05:29:54;;;;;;;11.70;5.60;;;-0.50;99.90;;;;;;4891471;29;20059;-78
2023/02/07 05:35:06;;;;;;;8.18;5.30;;;-0.50;99.90;;;;;;4885465;29;20049;-78
2023/02/07 05:37:33;;;;;;;7.68;4.82;;;-0.50;99.90;;;;;;4896065;29;20049;-80
2023/02/07 05:40:00;;;;;;;10.82;5.10;;;-0.50;99.90;;;;;;4886201;29;20127;-78
2023/02/07 05:42:27;;;;;;;9.18;5.88;;;-0.50;99.90;;;;;;4870252;29;20055;-77
2023/02/07 05:44:53;;;;;;;10.45;6.47;;;-0.60;99.90;;;;;;4892375;29;20143;-79
2023/02/07 05:47:20;;;;;;;11.25;6.28;;;-0.70;99.90;;;;;;4893305;29;20368;-79
2023/02/07 05:49:47;;;;;;;11.82;6.50;;;-0.60;99.90;;;;;;4888004;29;20049;-78
2023/02/07 05:52:13;;;;;;;10.35;5.97;;;-0.60;99.90;;;;;;4889888;29;20084;-79
2023/02/07 05:54:40;;;;;;;13.98;6.97;;;-0.70;99.90;;;;;;4894561;29;20170;-78
2023/02/07 05:57:07;;;;;;;11.48;6.70;;;-0.70;99.90;;;;;;4897361;29;20415;-79
2023/02/07 05:59:34;;;;;;;11.32;6.53;;;-0.70;99.90;;;;;;4893523;29;20091;-79
2023/02/07 06:02:00;;;;;;;14.85;6.65;;;-0.70;99.90;;;;;;4895427;29;20048;-79
2023/02/07 06:04:27;;;;;;;17.60;8.65;;;-0.60;99.90;;;;;;4892794;29;20045;-78
2023/02/07 06:06:54;;;;;;;19.60;9.63;;;-0.70;99.90;;;;;;4885967;29;20053;-78
2023/02/07 06:09:21;;;;;;;16.58;8.70;;;-0.70;99.90;;;;;;4892185;29;20040;-79
2023/02/07 06:11:48;;;;;;;14.00;7.45;;;-0.70;99.90;;;;;;4889059;29;20088;-78
2023/02/07 06:14:14;;;;;;;11.77;6.70;;;-0.70;99.90;;;;;;4893910;29;20529;-79
2023/02/07 06:16:41;;;;;;;10.70;6.40;;;-0.90;99.90;;;;;;4888922;29;20136;-78
2023/02/07 06:19:10;;;;;;;9.45;6.28;;;-1.00;99.90;;;;;;4884791;29;20141;-79
2023/02/07 06:21:36;;;;;;;25.33;15.43;;;-1.00;99.90;;;;;;4882293;29;20076;-79
2023/02/07 06:24:14;;;;;;;44.78;20.95;;;-1.00;99.90;;;;;;4893274;29;20085;-78
2023/02/07 06:26:41;;;;;;;20.80;10.80;;;-0.90;99.90;;;;;;4891239;29;20053;-79
2023/02/07 06:29:07;;;;;;;12.93;8.00;;;-0.90;99.90;;;;;;4892776;29;20128;-79
2023/02/07 06:31:34;;;;;;;12.57;7.40;;;-0.80;99.90;;;;;;4888894;29;20144;-79
2023/02/07 06:34:01;;;;;;;25.67;9.95;;;-0.90;99.90;;;;;;4885950;29;20061;-79
2023/02/07 06:36:27;;;;;;;10.88;7.22;;;-0.80;99.90;;;;;;4875570;29;20076;-78
2023/02/07 06:38:54;;;;;;;14.40;7.22;;;-0.90;99.90;;;;;;4890453;29;20052;-79
2023/02/07 06:41:21;;;;;;;16.38;7.07;;;-0.80;99.90;;;;;;4890534;29;20485;-79
2023/02/07 06:43:48;;;;;;;18.17;7.25;;;-0.90;99.90;;;;;;4886324;29;20403;-78
2023/02/07 06:46:15;;;;;;;16.88;8.82;;;-0.90;99.90;;;;;;4899145;29;20055;-79
2023/02/07 06:48:42;;;;;;;13.43;7.65;;;-0.80;99.90;;;;;;4892839;29;20045;-79
2023/02/07 06:51:09;;;;;;;13.68;6.78;;;-0.90;99.90;;;;;;4892644;29;20057;-79
2023/02/07 06:53:35;;;;;;;14.85;7.60;;;-0.90;99.90;;;;;;4892119;29;20088;-79
2023/02/07 06:56:02;;;;;;;13.32;7.20;;;-0.90;99.90;;;;;;4892827;29;20064;-78
2023/02/07 06:58:29;;;;;;;16.98;7.93;;;-0.90;99.90;;;;;;4892307;29;20570;-79
2023/02/07 07:00:56;;;;;;;14.85;8.57;;;-0.90;99.90;;;;;;4887850;29;20049;-79
2023/02/07 07:03:25;;;;;;;15.15;8.05;;;-0.90;99.90;;;;;;4868557;29;20419;-79
2023/02/07 07:05:52;;;;;;;14.13;7.95;;;-0.80;99.90;;;;;;4896102;29;20051;-78
2023/02/07 07:08:19;;;;;;;16.75;7.85;;;-0.80;99.90;;;;;;4896341;29;20045;-79
2023/02/07 07:10:46;;;;;;;13.98;8.05;;;-0.80;99.90;;;;;;4894486;29;20144;-78
2023/02/07 07:13:12;;;;;;;15.18;7.93;;;-0.80;99.90;;;;;;4895654;29;20052;-78
2023/02/07 07:15:39;;;;;;;14.02;7.88;;;-0.80;99.90;;;;;;4892692;29;20063;-78
2023/02/07 07:18:06;;;;;;;14.57;8.52;;;-0.80;99.90;;;;;;4892304;29;20049;-78
2023/02/07 07:20:33;;;;;;;16.52;7.88;;;-0.80;99.90;;;;;;4889572;29;20049;-79
2023/02/07 07:23:00;;;;;;;12.65;8.05;;;-0.70;99.90;;;;;;4891175;29;20052;-79
2023/02/07 07:25:26;;;;;;;13.77;8.43;;;-0.70;99.90;;;;;;4892024;29;20045;-76
2023/02/07 07:27:53;;;;;;;14.07;7.68;;;-0.80;99.90;;;;;;4893120;29;20049;-79
2023/02/07 07:30:20;;;;;;;16.23;7.00;;;-0.70;99.90;;;;;;4886909;29;20192;-78
2023/02/07 07:32:47;;;;;;;11.45;7.15;;;-0.70;99.90;;;;;;4894655;29;20053;-79
2023/02/07 07:35:13;;;;;;;10.75;7.22;;;-0.70;99.90;;;;;;4894807;29;20072;-79
2023/02/07 07:37:40;;;;;;;13.32;7.10;;;-0.70;99.90;;;;;;4893452;29;20498;-78
2023/02/07 07:40:08;;;;;;;10.02;6.70;;;-0.70;99.90;;;;;;4892725;29;20076;-78
2023/02/07 07:42:35;;;;;;;13.10;6.15;;;-0.70;99.90;;;;;;4891278;29;20080;-78
2023/02/07 07:45:03;;;;;;;9.85;6.43;;;-0.70;99.90;;;;;;4887127;29;20045;-78
2023/02/07 07:47:29;;;;;;;11.45;7.07;;;-0.70;99.90;;;;;;4886977;29;20044;-78
2023/02/07 07:49:56;;;;;;;11.18;7.03;;;-0.70;99.90;;;;;;4891286;29;20057;-78
2023/02/07 07:52:23;;;;;;;13.43;7.32;;;-0.70;99.90;;;;;;4894260;29;20177;-78
2023/02/07 07:54:49;;;;;;;15.48;7.95;;;-0.70;99.90;;;;;;4893698;29;20056;-78
2023/02/07 07:57:16;;;;;;;15.18;8.20;;;-0.70;99.90;;;;;;4895458;29;20048;-77
2023/02/07 07:59:45;;;;;;;14.53;6.83;;;-0.70;99.90;;;;;;4887959;29;20068;-78
2023/02/07 08:02:12;;;;;;;13.35;6.70;;;-0.70;99.90;;;;;;4890159;29;20527;-78
2023/02/07 08:04:38;;;;;;;12.48;7.28;;;-0.60;99.90;;;;;;4892089;29;20075;-78
2023/02/07 08:07:05;;;;;;;15.30;6.95;;;-0.60;99.90;;;;;;4891827;29;20101;-78
2023/02/07 08:09:32;;;;;;;12.05;6.93;;;-0.60;99.90;;;;;;4894110;29;20754;-78
2023/02/07 08:11:58;;;;;;;11.88;7.18;;;-0.60;99.90;;;;;;4888092;29;20139;-78
2023/02/07 08:14:25;;;;;;;14.82;6.90;;;-0.60;99.90;;;;;;4881969;29;20076;-78
2023/02/07 08:16:52;;;;;;;15.52;8.15;;;-0.60;99.90;;;;;;4876851;29;20476;-78
2023/02/07 08:19:18;;;;;;;14.25;8.95;;;-0.50;99.90;;;;;;4895316;29;20139;-78
2023/02/07 08:21:45;;;;;;;17.10;9.85;;;-0.50;99.90;;;;;;4894476;29;20068;-78
2023/02/07 08:24:12;;;;;;;18.55;8.98;;;-0.50;99.90;;;;;;4895965;29;20083;-78
2023/02/07 08:26:39;;;;;;;17.10;9.57;;;-0.40;99.90;;;;;;4874570;29;20096;-79
2023/02/07 08:29:06;;;;;;;18.90;10.13;;;-0.40;99.90;;;;;;4888124;29;20053;-79
2023/02/07 08:31:32;;;;;;;19.70;11.20;;;-0.40;99.90;;;;;;4888998;29;20080;-79
2023/02/07 08:33:59;;;;;;;16.38;9.73;;;-0.40;99.90;;;;;;4893868;29;20120;-80
2023/02/07 08:36:26;;;;;;;25.70;10.38;;;-0.30;99.90;;;;;;4890623;29;20048;-79
2023/02/07 08:38:53;;;;;;;16.75;10.13;;;-0.40;99.90;;;;;;4886663;29;20056;-79
2023/02/07 08:41:20;;;;;;;15.70;9.90;;;-0.30;99.90;;;;;;4892560;29;20082;-79
2023/02/07 08:43:46;;;;;;;16.58;10.02;;;-0.30;99.90;;;;;;4889325;29;20053;-79
2023/02/07 08:46:13;;;;;;;14.32;9.55;;;-0.20;99.90;;;;;;4893186;29;20055;-79
2023/02/07 08:48:40;;;;;;;18.35;10.10;;;-0.20;99.90;;;;;;4892487;29;20057;-79
2023/02/07 08:51:08;;;;;;;14.93;9.48;;;-0.20;99.90;;;;;;4894207;29;20059;-80
2023/02/07 08:53:35;;;;;;;15.73;10.00;;;-0.20;99.90;;;;;;4888425;29;20057;-79
2023/02/07 08:56:02;;;;;;;16.08;9.68;;;-0.10;99.90;;;;;;4886912;29;20088;-79
2023/02/07 08:58:28;;;;;;;14.38;8.70;;;-0.10;99.90;;;;;;4888793;29;20056;-80
2023/02/07 09:00:55;;;;;;;16.40;10.20;;;-0.10;99.90;;;;;;4894739;29;20076;-80
2023/02/07 09:03:22;;;;;;;15.88;9.27;;;0.00;99.90;;;;;;4883334;29;20052;-80
2023/02/07 09:05:49;;;;;;;16.42;8.93;;;0.00;99.90;;;;;;4896051;29;20068;-80
2023/02/07 09:08:16;;;;;;;14.00;8.43;;;0.00;99.90;;;;;;4893963;29;20507;-79
2023/02/07 09:10:43;;;;;;;16.88;9.80;;;0.00;99.90;;;;;;4887003;29;20053;-80
2023/02/07 09:13:14;;;;;;;15.80;9.63;;;0.10;99.90;;;;;;4889596;29;20075;-80
2023/02/07 09:15:40;;;;;;;17.52;9.98;;;0.10;99.90;;;;;;4874881;29;20060;-80
2023/02/07 09:18:07;;;;;;;15.38;9.60;;;0.10;99.90;;;;;;4892738;29;20491;-80
2023/02/07 09:20:34;;;;;;;15.77;9.85;;;0.20;99.90;;;;;;4870254;29;20053;-79
2023/02/07 09:23:19;;;;;;;18.55;10.18;;;0.20;99.90;;;;;;4887277;29;20139;-79
2023/02/07 09:25:48;;;;;;;14.32;8.80;;;0.10;99.90;;;;;;4901697;29;20049;-79
2023/02/07 09:28:16;;;;;;;17.25;9.90;;;0.20;99.90;;;;;;4900444;29;20048;-78
2023/02/07 09:30:44;;;;;;;15.90;9.70;;;0.20;99.90;;;;;;4895535;29;20048;-79
2023/02/07 09:33:12;;;;;;;16.25;9.65;;;0.30;99.90;;;;;;4901176;29;20076;-79
2023/02/07 09:35:41;;;;;;;17.63;9.63;;;0.30;99.90;;;;;;4891090;29;20084;-78
2023/02/07 09:38:12;;;;;;;21.08;10.57;;;0.30;99.90;;;;;;4888096;29;20056;-80
2023/02/07 09:40:40;;;;;;;16.80;10.18;;;0.40;99.90;;;;;;4871366;29;20060;-81
2023/02/07 09:43:08;;;;;;;15.20;9.55;;;0.40;99.90;;;;;;4894258;29;20048;-81
2023/02/07 09:45:40;;;;;;;17.30;9.68;;;0.40;99.90;;;;;;4893440;29;20077;-81
2023/02/07 09:48:16;;;;;;;16.30;9.85;;;0.50;99.90;;;;;;4888338;29;20480;-80
2023/02/07 09:51:00;;;;;;;18.13;9.75;;;0.50;99.90;;;;;;4897039;29;20560;-81
2023/02/07 09:53:41;;;;;;;20.58;10.75;;;0.50;99.90;;;;;;4890994;29;20618;-81
2023/02/07 09:56:09;;;;;;;15.93;9.18;;;0.60;99.90;;;;;;4894261;29;20061;-80
2023/02/07 09:58:44;;;;;;;14.55;9.43;;;0.60;99.90;;;;;;4889721;29;20101;-80
2023/02/07 10:01:22;;;;;;;18.20;10.43;;;0.60;99.90;;;;;;4892881;29;20427;-80
2023/02/07 10:04:29;;;;;;;23.67;11.77;;;0.60;99.90;;;;;;4886977;29;20063;-80
2023/02/07 10:06:58;;;;;;;18.98;9.38;;;0.60;99.90;;;;;;4841544;29;20049;-80
2023/02/07 10:09:36;;;;;;;13.75;9.68;;;0.60;99.90;;;;;;4890079;29;20050;-80
2023/02/07 10:12:30;;;;;;;17.42;9.55;;;0.70;99.90;;;;;;4891370;29;20520;-79
2023/02/07 10:14:57;;;;;;;21.08;12.70;;;0.70;99.90;;;;;;4894948;29;20077;-80
2023/02/07 10:17:42;;;;;;;17.92;10.80;;;0.80;99.90;;;;;;4895235;29;20058;-80
2023/02/07 10:20:47;;;;;;;18.15;13.13;;;0.80;99.90;;;;;;4891276;29;20053;-80
2023/02/07 10:23:33;;;;;;;21.98;11.25;;;0.90;99.90;;;;;;4865830;29;20052;-80
2023/02/07 10:26:23;;;;;;;18.80;11.75;;;0.90;99.90;;;;;;4893054;29;20141;-80
2023/02/07 10:29:02;;;;;;;17.73;10.23;;;0.90;99.90;;;;;;4885028;29;20056;-80
2023/02/07 10:31:32;;;;;;;15.93;9.55;;;1.00;99.90;;;;;;4892309;29;20628;-80
2023/02/07 10:34:12;;;;;;;21.55;10.23;;;1.00;99.90;;;;;;4885377;29;20053;-80
2023/02/07 10:36:43;;;;;;;15.25;9.55;;;1.00;99.90;;;;;;4892279;29;20132;-80
2023/02/07 10:39:13;;;;;;;14.82;9.32;;;1.10;99.90;;;;;;4895931;29;20045;-80
2023/02/07 10:41:41;;;;;;;20.55;9.45;;;1.10;99.90;;;;;;4894963;29;20152;-80
2023/02/07 10:44:17;;;;;;;16.80;9.32;;;1.10;99.90;;;;;;4895999;29;20089;-80
2023/02/07 10:46:53;;;;;;;13.88;8.60;;;1.10;99.90;;;;;;4888825;29;20128;-80
2023/02/07 10:49:23;;;;;;;15.23;9.57;;;1.10;99.90;;;;;;4891023;29;20100;-83
2023/02/07 10:51:55;;;;;;;16.48;10.88;;;1.20;99.90;;;;;;4889887;29;20057;-79
2023/02/07 10:54:23;;;;;;;16.55;8.95;;;1.20;99.90;;;;;;4897318;29;20510;-80
2023/02/07 10:57:01;;;;;;;17.42;10.07;;;1.20;99.90;;;;;;4899687;29;20125;-79
2023/02/07 10:59:44;;;;;;;15.93;9.60;;;1.30;99.90;;;;;;4909154;29;20045;-78
2023/02/07 11:02:20;;;;;;;14.75;9.48;;;1.30;99.90;;;;;;4911290;29;20080;-78
2023/02/07 11:04:47;;;;;;;18.52;10.30;;;1.30;99.90;;;;;;4908302;29;20063;-79
2023/02/07 11:07:14;;;;;;;15.25;9.13;;;1.30;99.90;;;;;;4869702;29;1048327;-78
2023/02/07 11:09:41;;;;;;;14.45;8.30;;;1.30;99.90;;;;;;4908152;29;20071;-78
2023/02/07 11:12:19;;;;;;;14.55;8.27;;;1.40;99.90;;;;;;4910061;29;20072;-78
2023/02/07 11:15:10;;;;;;;13.85;7.70;;;1.30;99.90;;;;;;4903025;29;20066;-79
2023/02/07 11:17:36;;;;;;;17.90;9.93;;;1.40;99.90;;;;;;4902684;29;20056;-78
2023/02/07 11:20:05;;;;;;;14.10;8.52;;;1.40;99.90;;;;;;4912208;29;20083;-78
2023/02/07 11:22:32;;;;;;;11.63;7.88;;;1.40;99.90;;;;;;4904191;29;20090;-79
2023/02/07 11:25:03;;;;;;;14.40;8.63;;;1.50;99.90;;;;;;4896881;29;20052;-79
2023/02/07 11:27:38;;;;;;;17.00;8.68;;;1.50;99.90;;;;;;4891897;29;20563;-80
2023/02/07 11:30:15;;;;;;;18.30;8.27;;;1.50;99.90;;;;;;4893992;29;20093;-79
2023/02/07 11:32:43;;;;;;;15.57;8.82;;;1.50;99.90;;;;;;4889059;29;20144;-80
2023/02/07 11:35:19;;;;;;;15.07;9.00;;;1.60;99.90;;;;;;4892380;29;20075;-80
2023/02/07 11:37:58;;;;;;;11.52;8.07;;;1.60;99.90;;;;;;4895268;29;20144;-80
2023/02/07 11:40:35;;;;;;;15.30;8.77;;;1.70;99.90;;;;;;4890860;29;20076;-79
2023/02/07 11:43:05;;;;;;;13.60;9.07;;;1.80;99.90;;;;;;4888191;29;20150;-80
2023/02/07 11:45:35;;;;;;;13.30;8.38;;;1.80;99.90;;;;;;4889768;29;20094;-80
2023/02/07 11:48:04;;;;;;;15.88;9.00;;;1.80;99.90;;;;;;4894028;29;20052;-80
2023/02/07 11:50:37;;;;;;;14.70;8.77;;;1.90;99.90;;;;;;4875420;29;20063;-79
2023/02/07 11:53:04;;;;;;;15.20;9.65;;;1.90;99.90;;;;;;4893659;29;20049;-79
2023/02/07 11:55:40;;;;;;;14.45;8.60;;;2.00;99.90;;;;;;4896523;29;20056;-79
2023/02/07 11:58:30;;;;;;;13.35;8.80;;;2.00;99.90;;;;;;4891214;29;20073;-80
2023/02/07 12:00:59;;;;;;;12.52;8.65;;;2.00;99.90;;;;;;4892627;29;20136;-80
2023/02/07 12:03:30;;;;;;;13.63;9.43;;;2.00;99.90;;;;;;4884041;29;20045;-79
2023/02/07 12:06:02;;;;;;;14.50;9.25;;;2.00;99.90;;;;;;4896143;29;20088;-80
2023/02/07 12:08:33;;;;;;;15.95;9.20;;;2.10;99.90;;;;;;4892516;29;20072;-80
2023/02/07 12:11:23;;;;;;;12.45;9.10;;;2.10;99.90;;;;;;4895698;29;20566;-80
2023/02/07 12:13:55;;;;;;;13.10;8.00;;;2.10;99.90;;;;;;4876566;29;20495;-80
2023/02/07 12:16:28;;;;;;;14.68;8.80;;;2.10;99.90;;;;;;4896717;29;20090;-80
2023/02/07 12:19:11;;;;;;;14.90;9.10;;;2.20;99.90;;;;;;4874962;29;20053;-78
2023/02/07 12:22:05;;;;;;;12.30;8.82;;;2.20;99.90;;;;;;4896642;29;20813;-80
2023/02/07 12:24:41;;;;;;;15.23;8.73;;;2.30;99.90;;;;;;4892802;29;20064;-80
2023/02/07 12:27:07;;;;;;;13.95;8.93;;;2.30;99.90;;;;;;4887351;29;20045;-80
2023/02/07 12:30:15;;;;;;;11.90;8.10;;;2.30;99.90;;;;;;4894030;29;20084;-79
2023/02/07 12:33:00;;;;;;;12.23;8.32;;;2.40;99.90;;;;;;4895950;29;20091;-79
2023/02/07 12:35:42;;;;;;;14.77;9.00;;;2.40;99.90;;;;;;4877004;29;20127;-79
2023/02/07 12:38:25;;;;;;;13.20;8.40;;;2.40;99.90;;;;;;4894908;29;20072;-80
2023/02/07 12:40:54;;;;;;;16.33;9.38;;;2.40;99.90;;;;;;4890835;29;20131;-79
2023/02/07 12:43:23;;;;;;;14.63;9.13;;;2.50;99.90;;;;;;4891809;29;20471;-80
2023/02/07 12:45:59;;;;;;;13.88;8.57;;;2.50;99.90;;;;;;4891271;29;20051;-79
2023/02/07 12:48:38;;;;;;;13.77;8.05;;;2.50;99.90;;;;;;4894174;29;20059;-80
2023/02/07 12:51:26;;;;;;;15.23;8.30;;;2.60;99.90;;;;;;4891745;29;20105;-78
2023/02/07 12:54:02;;;;;;;13.00;8.32;;;2.60;99.90;;;;;;4886204;29;20057;-80
2023/02/07 12:56:50;;;;;;;13.35;9.07;;;2.60;99.90;;;;;;4890616;29;20057;-79
2023/02/07 12:59:53;;;;;;;12.65;8.48;;;2.60;99.90;;;;;;4892628;29;20052;-79
2023/02/07 13:02:38;;;;;;;11.85;8.10;;;2.70;99.90;;;;;;4893831;29;20049;-79
2023/02/07 13:05:27;;;;;;;13.15;8.07;;;2.60;99.90;;;;;;4892809;29;20055;-79
2023/02/07 13:08:20;;;;;;;17.33;8.90;;;2.70;99.90;;;;;;4888866;29;20058;-78
2023/02/07 13:11:02;;;;;;;13.90;9.63;;;2.70;99.90;;;;;;4883790;29;20057;-80
2023/02/07 13:13:56;;;;;;;14.90;9.32;;;2.80;99.90;;;;;;4888411;29;20080;-80